Time;durP1;ratioP1;P1;durP2;ratioP2;P2;SDS_P1;SDS_P2;PMS_P1;PMS_P2;Temp;Humidity;BMP_temperature;BMP_pressure;BME280_temperature;BME280_humidity;BME280_pressure;Samples;Min_cycle;Max_cycle;Signal;HPM_P1;HPM_P2
2022/01/15 00:00:36;;;;;;;21.52;15.95;;;-1.80;99.90;;;;;;5030501;28;20097;-56
2022/01/15 00:03:04;;;;;;;28.05;15.80;;;-1.90;99.90;;;;;;5018881;28;20022;-55
2022/01/15 00:05:30;;;;;;;24.95;15.70;;;-1.90;99.90;;;;;;5012238;28;20076;-56
2022/01/15 00:07:57;;;;;;;22.77;15.13;;;-1.90;99.90;;;;;;5010258;28;20030;-56
2022/01/15 00:10:26;;;;;;;24.80;15.77;;;-2.00;99.90;;;;;;5027073;28;20029;-52
2022/01/15 00:12:56;;;;;;;23.25;15.55;;;-2.00;99.90;;;;;;5009595;28;20482;-55
2022/01/15 00:15:28;;;;;;;23.90;15.55;;;-2.00;99.90;;;;;;5027620;28;20049;-55
2022/01/15 00:18:04;;;;;;;34.88;17.38;;;-1.90;99.90;;;;;;5030307;28;20120;-56
2022/01/15 00:20:31;;;;;;;31.85;17.75;;;-1.90;99.90;;;;;;5010866;28;20014;-55
2022/01/15 00:22:58;;;;;;;24.95;15.68;;;-1.90;99.90;;;;;;5012262;28;20032;-53
2022/01/15 00:25:26;;;;;;;25.83;16.00;;;-2.00;99.90;;;;;;5010865;28;20104;-53
2022/01/15 00:27:53;;;;;;;29.58;16.25;;;-2.00;99.90;;;;;;5010777;28;20033;-55
2022/01/15 00:30:20;;;;;;;27.17;15.93;;;-2.00;99.90;;;;;;5010736;28;20508;-55
2022/01/15 00:32:47;;;;;;;22.48;15.57;;;-2.10;99.90;;;;;;5010352;28;20033;-55
2022/01/15 00:35:14;;;;;;;28.10;17.23;;;-2.10;99.90;;;;;;5011212;28;20021;-56
2022/01/15 00:37:41;;;;;;;27.80;17.67;;;-2.20;99.90;;;;;;5011025;28;20021;-55
2022/01/15 00:40:10;;;;;;;26.75;17.10;;;-2.20;99.90;;;;;;5010264;28;20113;-53
2022/01/15 00:42:36;;;;;;;28.10;16.23;;;-2.20;99.90;;;;;;5010496;28;20540;-55
2022/01/15 00:45:04;;;;;;;23.33;16.15;;;-2.20;99.90;;;;;;5010682;28;20113;-53
2022/01/15 00:47:31;;;;;;;25.00;16.38;;;-2.20;99.90;;;;;;5018735;28;20544;-56
2022/01/15 00:50:03;;;;;;;25.05;16.52;;;-2.20;99.90;;;;;;5028719;28;20098;-53
2022/01/15 00:52:29;;;;;;;22.10;15.30;;;-2.20;99.90;;;;;;5022104;28;20381;-52
2022/01/15 00:54:55;;;;;;;28.40;17.95;;;-2.30;99.90;;;;;;5028827;28;20026;-55
2022/01/15 00:57:21;;;;;;;23.77;17.15;;;-2.30;99.90;;;;;;5029783;28;20029;-55
2022/01/15 00:59:47;;;;;;;30.38;17.60;;;-2.30;99.90;;;;;;5029871;28;20459;-56
2022/01/15 01:02:13;;;;;;;27.50;17.23;;;-2.30;99.90;;;;;;5025063;28;20025;-55
2022/01/15 01:04:39;;;;;;;24.42;17.58;;;-2.40;99.90;;;;;;5011723;28;20472;-55
2022/01/15 01:07:05;;;;;;;28.45;17.45;;;-2.30;99.90;;;;;;5011304;28;20028;-56
2022/01/15 01:10:33;;;;;;;31.63;16.55;;;-2.30;99.90;;;;;;5007993;28;20125;-55
2022/01/15 01:23:20;;;;;;;23.90;15.75;;;-2.40;99.90;;;;;;5017576;28;20036;-53
2022/01/15 01:25:49;;;;;;;23.98;15.45;;;-2.40;99.90;;;;;;5016682;28;20030;-56
2022/01/15 01:28:25;;;;;;;26.65;16.20;;;-2.50;99.90;;;;;;5008634;28;20080;-56
2022/01/15 01:31:00;;;;;;;24.05;16.88;;;-2.50;99.90;;;;;;5011136;28;20087;-55
2022/01/15 01:36:19;;;;;;;31.20;16.85;;;-2.60;99.90;;;;;;5016659;28;20022;-56
2022/01/15 01:38:52;;;;;;;24.15;15.35;;;-2.60;99.90;;;;;;5022283;28;20037;-55
2022/01/15 01:41:21;;;;;;;29.70;16.90;;;-2.50;99.90;;;;;;5025430;28;20029;-56
2022/01/15 01:48:45;;;;;;;25.58;16.73;;;-2.60;99.90;;;;;;5026640;28;20033;-55
2022/01/15 01:51:36;;;;;;;25.75;17.20;;;-2.60;99.90;;;;;;5013754;28;20057;-55
2022/01/15 01:54:06;;;;;;;23.40;17.00;;;-2.60;99.90;;;;;;5028723;28;20037;-54
2022/01/15 01:56:32;;;;;;;27.48;17.95;;;-2.70;99.90;;;;;;5032318;28;20030;-55
2022/01/15 01:58:59;;;;;;;27.15;18.55;;;-2.60;99.90;;;;;;5032032;28;20029;-52
2022/01/15 02:01:25;;;;;;;30.00;20.65;;;-2.60;99.90;;;;;;5013503;28;20026;-54
2022/01/15 02:03:52;;;;;;;30.33;18.70;;;-2.60;99.90;;;;;;5013516;28;20018;-53
2022/01/15 02:06:19;;;;;;;25.33;18.85;;;-2.50;99.90;;;;;;5026798;28;20389;-55
2022/01/15 02:08:45;;;;;;;28.92;19.05;;;-2.50;99.90;;;;;;5032066;28;20025;-53
2022/01/15 02:11:11;;;;;;;34.65;18.60;;;-2.40;99.90;;;;;;5032639;28;20029;-53
2022/01/15 02:13:42;;;;;;;30.10;18.50;;;-2.40;99.90;;;;;;5032920;28;20556;-55
2022/01/15 02:16:09;;;;;;;30.30;19.15;;;-2.40;99.90;;;;;;5015702;28;20057;-52
2022/01/15 02:18:35;;;;;;;27.88;18.35;;;-2.30;99.90;;;;;;5013039;28;20393;-55
2022/01/15 02:23:44;;;;;;;26.15;18.80;;;-2.40;99.90;;;;;;5022050;28;20121;-55
2022/01/15 02:26:14;;;;;;;30.35;19.38;;;-2.40;99.90;;;;;;5012880;28;20029;-54
2022/01/15 02:28:42;;;;;;;30.17;18.27;;;-2.40;99.90;;;;;;5011598;28;20041;-55
2022/01/15 02:31:13;;;;;;;30.70;19.17;;;-2.50;99.90;;;;;;5025884;28;20060;-55
2022/01/15 02:33:40;;;;;;;32.20;19.73;;;-2.50;99.90;;;;;;5032248;28;20025;-54
2022/01/15 02:36:11;;;;;;;31.60;19.00;;;-2.50;99.90;;;;;;5029802;28;20025;-55
2022/01/15 02:38:39;;;;;;;31.73;21.10;;;-2.50;99.90;;;;;;5012023;28;20022;-55
2022/01/15 02:41:06;;;;;;;27.65;18.75;;;-2.60;99.90;;;;;;5011998;28;20033;-55
2022/01/15 02:43:33;;;;;;;34.05;19.13;;;-2.60;99.90;;;;;;5012745;28;20021;-52
2022/01/15 02:46:18;;;;;;;30.75;19.17;;;-2.60;99.90;;;;;;5026699;28;20029;-56
2022/01/15 02:48:45;;;;;;;29.45;19.45;;;-2.70;99.90;;;;;;5032461;28;20038;-56
2022/01/15 02:51:11;;;;;;;30.90;18.88;;;-2.70;99.90;;;;;;5014478;28;20238;-56
2022/01/15 02:53:37;;;;;;;33.30;19.75;;;-2.70;99.90;;;;;;5021551;28;20038;-55
2022/01/15 02:56:03;;;;;;;32.90;19.88;;;-2.70;99.90;;;;;;5011821;28;20029;-56
2022/01/15 02:58:29;;;;;;;30.67;18.98;;;-2.80;99.90;;;;;;5012272;28;20121;-54
2022/01/15 03:00:54;;;;;;;36.72;20.23;;;-2.80;99.90;;;;;;5012261;28;20393;-56
2022/01/15 03:03:20;;;;;;;26.17;17.77;;;-2.80;99.90;;;;;;5011759;28;20046;-54
2022/01/15 03:05:46;;;;;;;31.13;18.10;;;-2.80;99.90;;;;;;5022527;28;20060;-54
2022/01/15 03:08:12;;;;;;;37.60;19.92;;;-2.80;99.90;;;;;;5031204;28;20452;-55
2022/01/15 03:10:38;;;;;;;30.90;19.05;;;-2.90;99.90;;;;;;5031113;28;20031;-54
2022/01/15 03:13:11;;;;;;;34.97;19.63;;;-2.90;99.90;;;;;;5031643;28;20489;-52
2022/01/15 03:15:37;;;;;;;32.63;19.95;;;-2.90;99.90;;;;;;5031295;28;20082;-53
2022/01/15 03:18:03;;;;;;;29.60;19.17;;;-3.00;99.90;;;;;;5032117;28;20083;-55
2022/01/15 03:20:29;;;;;;;34.38;19.60;;;-3.00;99.90;;;;;;5031597;28;20411;-56
2022/01/15 03:22:54;;;;;;;33.05;20.63;;;-3.00;99.90;;;;;;5023489;28;20052;-55
2022/01/15 03:25:21;;;;;;;34.92;20.52;;;-3.00;99.90;;;;;;5020293;28;20037;-55
2022/01/15 03:27:47;;;;;;;35.63;21.17;;;-3.10;99.90;;;;;;5010371;28;20052;-55
2022/01/15 03:30:13;;;;;;;34.83;19.50;;;-3.10;99.90;;;;;;5013006;28;20470;-56
2022/01/15 03:32:43;;;;;;;35.97;20.42;;;-3.10;99.90;;;;;;5012021;28;20381;-56
2022/01/15 03:35:11;;;;;;;32.47;19.42;;;-3.10;99.90;;;;;;5012983;28;20030;-55
2022/01/15 03:37:37;;;;;;;30.98;20.10;;;-3.10;99.90;;;;;;5011746;28;20025;-52
2022/01/15 03:40:03;;;;;;;29.88;19.60;;;-3.10;99.90;;;;;;5020022;28;20484;-54
2022/01/15 03:42:28;;;;;;;26.92;18.23;;;-3.10;99.90;;;;;;5031490;28;20134;-55
2022/01/15 03:44:54;;;;;;;32.13;20.65;;;-3.10;99.90;;;;;;5029575;28;20064;-54
2022/01/15 03:47:20;;;;;;;35.28;19.63;;;-3.10;99.90;;;;;;5013738;28;20064;-56
2022/01/15 03:49:45;;;;;;;35.70;21.27;;;-3.10;99.90;;;;;;5017863;28;20036;-55
2022/01/15 03:52:11;;;;;;;56.35;26.08;;;-3.10;99.90;;;;;;5019731;28;20523;-55
2022/01/15 03:54:42;;;;;;;54.72;26.55;;;-3.10;99.90;;;;;;5027688;28;20432;-55
2022/01/15 03:57:08;;;;;;;63.67;29.45;;;-3.10;99.90;;;;;;5017049;28;20080;-55
2022/01/15 03:59:34;;;;;;;64.20;27.38;;;-3.10;99.90;;;;;;5011093;28;20033;-53
2022/01/15 04:01:59;;;;;;;95.45;40.05;;;-3.20;99.90;;;;;;5029155;28;20033;-54
2022/01/15 04:04:25;;;;;;;53.75;26.85;;;-3.20;99.90;;;;;;5014731;28;20057;-53
2022/01/15 04:06:51;;;;;;;167.93;50.33;;;-3.20;99.90;;;;;;5029722;28;21239;-53
2022/01/15 04:09:19;;;;;;;163.02;57.20;;;-3.20;99.90;;;;;;5028008;28;20080;-53
2022/01/15 04:11:45;;;;;;;177.50;58.05;;;-3.30;99.90;;;;;;5011034;28;20092;-54
2022/01/15 04:14:11;;;;;;;150.45;49.72;;;-3.20;99.90;;;;;;5024139;28;20042;-52
2022/01/15 04:16:37;;;;;;;153.15;53.15;;;-3.30;99.90;;;;;;5030487;28;20056;-55
2022/01/15 04:19:06;;;;;;;117.43;42.88;;;-3.30;99.90;;;;;;5029193;28;20037;-56
2022/01/15 04:21:32;;;;;;;80.03;34.08;;;-3.30;99.90;;;;;;5030311;28;20047;-53
2022/01/15 04:23:57;;;;;;;68.53;29.23;;;-3.30;99.90;;;;;;5017740;28;20485;-56
2022/01/15 04:26:27;;;;;;;67.28;27.98;;;-3.30;99.90;;;;;;5025068;28;20371;-55
2022/01/15 04:28:54;;;;;;;80.35;33.47;;;-3.40;99.90;;;;;;5030499;28;20095;-56
2022/01/15 04:31:20;;;;;;;56.85;25.70;;;-3.40;99.90;;;;;;5028880;28;20029;-56
2022/01/15 04:33:46;;;;;;;59.78;26.17;;;-3.40;99.90;;;;;;5030493;28;20036;-56
2022/01/15 04:36:12;;;;;;;62.55;26.65;;;-3.40;99.90;;;;;;5028535;28;20029;-56
2022/01/15 04:38:40;;;;;;;49.05;22.90;;;-3.40;99.90;;;;;;5030250;28;20030;-55
2022/01/15 04:41:07;;;;;;;52.92;26.42;;;-3.40;99.90;;;;;;5030284;28;20029;-56
2022/01/15 04:43:33;;;;;;;50.50;23.67;;;-3.40;99.90;;;;;;5023427;28;20034;-55
2022/01/15 04:45:58;;;;;;;33.58;20.42;;;-3.30;99.90;;;;;;5011912;28;20091;-54
2022/01/15 04:48:24;;;;;;;39.20;21.95;;;-3.40;99.90;;;;;;5010624;28;20044;-53
2022/01/15 04:50:50;;;;;;;38.97;20.90;;;-3.40;99.90;;;;;;5011547;28;20034;-56
2022/01/15 04:53:15;;;;;;;40.10;21.95;;;-3.40;99.90;;;;;;5017184;28;20036;-56
2022/01/15 04:55:41;;;;;;;31.48;21.02;;;-3.40;99.90;;;;;;5029745;28;20068;-55
2022/01/15 04:58:08;;;;;;;38.50;21.65;;;-3.40;99.90;;;;;;5012653;28;20026;-53
2022/01/15 05:00:35;;;;;;;34.28;21.70;;;-3.30;99.90;;;;;;5010347;28;20026;-56
2022/01/15 05:03:01;;;;;;;34.58;21.35;;;-3.40;99.90;;;;;;5018973;28;20489;-56
2022/01/15 05:05:28;;;;;;;31.45;19.63;;;-3.40;99.90;;;;;;5028520;28;20083;-55
2022/01/15 05:07:55;;;;;;;34.67;18.35;;;-3.40;99.90;;;;;;5029979;28;20014;-54
2022/01/15 05:10:25;;;;;;;33.63;21.13;;;-3.40;99.90;;;;;;5030054;28;20046;-55
2022/01/15 05:12:54;;;;;;;33.63;18.85;;;-3.40;99.90;;;;;;5030251;28;20030;-56
2022/01/15 05:15:20;;;;;;;37.67;20.92;;;-3.40;99.90;;;;;;5032579;28;20524;-54
2022/01/15 05:17:47;;;;;;;30.15;18.30;;;-3.40;99.90;;;;;;5034058;28;20026;-54
2022/01/15 05:20:17;;;;;;;36.70;19.80;;;-3.40;99.90;;;;;;5023492;28;20030;-52
2022/01/15 05:22:43;;;;;;;30.33;20.35;;;-3.40;99.90;;;;;;5013957;28;20040;-55
2022/01/15 05:25:09;;;;;;;31.85;19.42;;;-3.40;99.90;;;;;;5013038;28;20034;-55
2022/01/15 05:27:36;;;;;;;31.98;19.15;;;-3.50;99.90;;;;;;5014653;28;20026;-54
2022/01/15 05:30:06;;;;;;;31.13;19.85;;;-3.50;99.90;;;;;;5024776;28;20037;-55
2022/01/15 05:32:31;;;;;;;35.35;20.92;;;-3.50;99.90;;;;;;5030764;28;20025;-56
2022/01/15 05:34:57;;;;;;;33.95;20.73;;;-3.50;99.90;;;;;;5026073;28;20040;-53
2022/01/15 05:37:24;;;;;;;32.08;21.10;;;-3.50;99.90;;;;;;5014069;28;20423;-56
2022/01/15 05:39:49;;;;;;;36.00;20.42;;;-3.60;99.90;;;;;;5013835;28;20030;-54
2022/01/15 05:42:15;;;;;;;30.13;20.50;;;-3.50;99.90;;;;;;5013629;28;20022;-55
2022/01/15 05:44:41;;;;;;;40.20;20.88;;;-3.60;99.90;;;;;;5014058;28;20022;-55
2022/01/15 05:47:08;;;;;;;30.40;19.40;;;-3.60;99.90;;;;;;5013661;28;20026;-54
2022/01/15 05:49:34;;;;;;;33.72;19.75;;;-3.50;99.90;;;;;;5018797;28;20037;-54
2022/01/15 05:52:00;;;;;;;35.17;20.15;;;-3.50;99.90;;;;;;5029299;28;20116;-56
2022/01/15 05:54:26;;;;;;;35.20;21.90;;;-3.60;99.90;;;;;;5013927;28;20105;-55
2022/01/15 05:56:51;;;;;;;35.80;21.60;;;-3.60;99.90;;;;;;5013594;28;20029;-52
2022/01/15 05:59:17;;;;;;;30.10;20.15;;;-3.60;99.90;;;;;;5014666;28;20485;-52
2022/01/15 06:01:42;;;;;;;27.70;19.20;;;-3.60;99.90;;;;;;5013596;28;20088;-54
2022/01/15 06:04:08;;;;;;;39.20;20.05;;;-3.60;99.90;;;;;;5021194;28;20030;-56
2022/01/15 06:06:34;;;;;;;40.25;19.65;;;-3.60;99.90;;;;;;5033295;28;20029;-55
2022/01/15 06:09:00;;;;;;;37.10;20.92;;;-3.60;99.90;;;;;;5032915;28;20034;-56
2022/01/15 06:11:27;;;;;;;40.80;22.13;;;-3.60;99.90;;;;;;5033154;28;20121;-55
2022/01/15 06:13:52;;;;;;;34.05;19.85;;;-3.60;99.90;;;;;;5032968;28;20021;-54
2022/01/15 06:16:18;;;;;;;35.65;20.88;;;-3.60;99.90;;;;;;5014415;28;20103;-54
2022/01/15 06:18:43;;;;;;;35.42;21.05;;;-3.60;99.90;;;;;;5011945;28;20038;-55
2022/01/15 06:21:09;;;;;;;41.67;21.15;;;-3.60;99.90;;;;;;5030553;28;20025;-52
2022/01/15 06:23:35;;;;;;;32.60;21.25;;;-3.60;99.90;;;;;;5031601;28;20075;-54
2022/01/15 06:26:00;;;;;;;32.00;20.10;;;-3.60;99.90;;;;;;5016577;28;20112;-56
2022/01/15 06:28:26;;;;;;;32.78;20.95;;;-3.60;99.90;;;;;;5032662;28;20540;-54
2022/01/15 06:30:52;;;;;;;32.15;21.95;;;-3.60;99.90;;;;;;5027507;28;20022;-53
2022/01/15 06:33:17;;;;;;;33.28;19.95;;;-3.60;99.90;;;;;;5013081;28;20036;-53
2022/01/15 06:35:43;;;;;;;31.95;21.80;;;-3.70;99.90;;;;;;5013874;28;20135;-55
2022/01/15 06:38:10;;;;;;;39.70;23.17;;;-3.70;99.90;;;;;;5013009;28;20028;-55
2022/01/15 06:40:36;;;;;;;35.78;21.48;;;-3.70;99.90;;;;;;5025207;28;20025;-56
2022/01/15 06:43:02;;;;;;;30.58;19.65;;;-3.70;99.90;;;;;;5032792;28;20120;-56
2022/01/15 06:45:29;;;;;;;29.13;19.83;;;-3.70;99.90;;;;;;5032265;28;20508;-56
2022/01/15 06:47:55;;;;;;;29.02;19.42;;;-3.70;99.90;;;;;;5015695;28;20473;-52
2022/01/15 06:50:23;;;;;;;35.08;21.98;;;-3.70;99.90;;;;;;5021229;28;20022;-55
2022/01/15 06:52:49;;;;;;;30.40;19.65;;;-3.70;99.90;;;;;;5012503;28;20030;-53
2022/01/15 06:55:15;;;;;;;38.80;20.20;;;-3.70;99.90;;;;;;5018426;28;20072;-53
2022/01/15 06:57:40;;;;;;;31.08;20.13;;;-3.70;99.90;;;;;;5018558;28;20101;-56
2022/01/15 07:00:08;;;;;;;33.17;21.65;;;-3.70;99.90;;;;;;5012465;28;20037;-53
2022/01/15 07:02:34;;;;;;;31.60;22.23;;;-3.60;99.90;;;;;;5032212;28;20061;-55
2022/01/15 07:05:00;;;;;;;36.80;21.75;;;-3.70;99.90;;;;;;5030913;28;20055;-55
2022/01/15 07:07:26;;;;;;;35.38;21.83;;;-3.60;99.90;;;;;;5032315;28;20388;-56
2022/01/15 07:09:52;;;;;;;35.35;21.33;;;-3.60;99.90;;;;;;5030585;28;20074;-52
2022/01/15 07:12:17;;;;;;;38.47;20.65;;;-3.60;99.90;;;;;;5031670;28;20029;-55
2022/01/15 07:14:43;;;;;;;34.53;21.27;;;-3.60;99.90;;;;;;5025888;28;20049;-51
2022/01/15 07:17:10;;;;;;;38.45;22.88;;;-3.60;99.90;;;;;;5012196;28;20037;-55
2022/01/15 07:19:36;;;;;;;40.17;23.05;;;-3.60;99.90;;;;;;5016462;28;20022;-55
2022/01/15 07:22:03;;;;;;;32.78;21.80;;;-3.50;99.90;;;;;;5031797;28;20017;-56
2022/01/15 07:24:28;;;;;;;36.03;21.25;;;-3.40;99.90;;;;;;5031394;28;20031;-54
2022/01/15 07:26:54;;;;;;;35.30;23.10;;;-3.40;99.90;;;;;;5031472;28;20489;-52
2022/01/15 07:29:20;;;;;;;29.38;21.70;;;-3.40;99.90;;;;;;5029887;28;20367;-51
2022/01/15 07:31:47;;;;;;;34.88;23.50;;;-3.40;99.90;;;;;;5029558;28;20017;-53
2022/01/15 07:34:14;;;;;;;40.30;22.05;;;-3.30;99.90;;;;;;5031235;28;20041;-51
2022/01/15 07:36:40;;;;;;;41.50;22.27;;;-3.30;99.90;;;;;;5015141;28;20342;-52
2022/01/15 07:39:07;;;;;;;35.30;22.77;;;-3.30;99.90;;;;;;5013085;28;20108;-51
2022/01/15 07:41:34;;;;;;;35.90;21.13;;;-3.20;99.90;;;;;;5012658;28;20052;-51
2022/01/15 07:43:59;;;;;;;39.58;22.25;;;-3.10;99.90;;;;;;5011851;28;20385;-53
2022/01/15 07:46:26;;;;;;;36.13;22.45;;;-3.10;99.90;;;;;;5011741;28;20105;-51
2022/01/15 07:48:52;;;;;;;40.50;24.92;;;-3.00;99.90;;;;;;5011378;28;20432;-52
2022/01/15 07:51:17;;;;;;;37.63;23.05;;;-3.00;99.90;;;;;;5028394;28;20036;-51
2022/01/15 07:53:44;;;;;;;38.65;23.30;;;-2.90;99.90;;;;;;5029756;28;20034;-53
2022/01/15 07:56:10;;;;;;;37.60;25.15;;;-2.90;99.90;;;;;;5012844;28;20469;-52
2022/01/15 07:58:35;;;;;;;41.58;27.48;;;-2.80;99.90;;;;;;5011106;28;20030;-51
2022/01/15 08:01:01;;;;;;;45.90;27.42;;;-2.70;99.90;;;;;;5010266;28;20109;-55
2022/01/15 08:03:27;;;;;;;44.47;28.05;;;-2.70;99.90;;;;;;5023440;28;20087;-53
2022/01/15 08:05:52;;;;;;;60.92;32.25;;;-2.60;99.90;;;;;;5028340;28;20025;-54
2022/01/15 08:08:18;;;;;;;44.40;29.10;;;-2.50;99.90;;;;;;5029524;28;20022;-54
2022/01/15 08:10:44;;;;;;;54.50;33.60;;;-2.40;99.90;;;;;;5030833;28;20044;-52
2022/01/15 08:13:10;;;;;;;70.40;41.70;;;-2.30;99.90;;;;;;5030761;28;20025;-52
2022/01/15 08:15:36;;;;;;;65.03;39.70;;;-2.20;99.90;;;;;;5029972;28;20064;-51
2022/01/15 08:18:02;;;;;;;58.42;35.60;;;-2.20;99.90;;;;;;5030704;28;20122;-54
2022/01/15 08:20:27;;;;;;;55.60;36.38;;;-2.10;99.90;;;;;;5019772;28;20044;-52
2022/01/15 08:22:53;;;;;;;61.13;38.45;;;-2.00;99.90;;;;;;5012117;28;20022;-52
2022/01/15 08:25:20;;;;;;;66.65;37.80;;;-1.90;99.90;;;;;;5019109;28;20037;-55
2022/01/15 08:27:47;;;;;;;58.33;37.80;;;-1.80;99.90;;;;;;5010744;28;20026;-53
2022/01/15 08:30:13;;;;;;;68.57;38.95;;;-1.60;99.90;;;;;;5012041;28;20033;-54
2022/01/15 08:32:39;;;;;;;62.83;40.72;;;-1.50;99.90;;;;;;5010697;28;20030;-54
2022/01/15 08:35:06;;;;;;;78.05;45.72;;;-1.40;99.90;;;;;;5024247;28;20499;-52
2022/01/15 08:37:32;;;;;;;61.75;39.72;;;-1.30;99.90;;;;;;5030371;28;20036;-52
2022/01/15 08:39:58;;;;;;;64.40;40.70;;;-1.20;99.90;;;;;;5022683;28;20072;-52
2022/01/15 08:42:24;;;;;;;54.20;34.33;;;-1.20;99.90;;;;;;5021390;28;20029;-52
2022/01/15 08:44:51;;;;;;;56.85;37.25;;;-1.10;99.90;;;;;;5028606;28;20033;-52
2022/01/15 08:47:17;;;;;;;48.15;33.20;;;-0.90;99.90;;;;;;5030141;28;20159;-52
2022/01/15 08:49:43;;;;;;;48.30;34.80;;;-0.70;99.90;;;;;;5027306;28;20029;-52
2022/01/15 08:52:09;;;;;;;45.38;31.35;;;-0.70;99.90;;;;;;5030624;28;20055;-51
2022/01/15 08:54:35;;;;;;;42.33;27.15;;;-0.50;99.90;;;;;;5016229;28;20053;-51
2022/01/15 08:57:00;;;;;;;38.03;25.65;;;-0.30;99.90;;;;;;5011933;28;20026;-55
2022/01/15 08:59:27;;;;;;;36.13;25.52;;;-0.20;99.90;;;;;;5010213;28;20045;-55
2022/01/15 09:01:57;;;;;;;36.92;25.65;;;-0.20;99.90;;;;;;5011711;28;20046;-55
2022/01/15 09:04:23;;;;;;;40.53;27.23;;;-0.10;99.90;;;;;;5018341;28;20400;-52
2022/01/15 09:06:49;;;;;;;55.40;36.10;;;0.00;99.90;;;;;;5030928;28;20018;-52
2022/01/15 09:09:15;;;;;;;47.20;32.78;;;0.10;99.90;;;;;;5031043;28;20021;-54
2022/01/15 09:11:41;;;;;;;52.88;32.40;;;0.10;99.90;;;;;;5030758;28;20365;-55
2022/01/15 09:14:07;;;;;;;47.35;30.58;;;0.20;99.90;;;;;;5019855;28;20129;-53
2022/01/15 09:16:32;;;;;;;45.28;30.17;;;0.30;99.90;;;;;;5011482;28;20037;-54
2022/01/15 09:18:58;;;;;;;49.70;30.42;;;0.50;99.90;;;;;;5011465;28;20037;-55
2022/01/15 09:21:24;;;;;;;46.72;31.45;;;0.50;99.90;;;;;;5011256;28;20037;-56
2022/01/15 09:23:51;;;;;;;45.42;29.73;;;0.70;99.90;;;;;;5009638;28;20034;-57
2022/01/15 09:31:54;;;;;;;44.65;29.67;;;1.20;99.90;;;;;;5029136;28;20091;-57
2022/01/15 09:34:20;;;;;;;42.58;27.83;;;1.40;99.90;;;;;;5024950;28;20023;-57
2022/01/15 09:36:46;;;;;;;43.33;28.52;;;1.60;99.90;;;;;;5012108;28;20030;-54
2022/01/15 09:39:11;;;;;;;51.22;31.45;;;1.70;99.90;;;;;;5021979;28;20022;-55
2022/01/15 09:41:43;;;;;;;41.83;26.05;;;2.10;99.90;;;;;;5022207;28;20026;-55
2022/01/15 09:44:09;;;;;;;34.40;23.50;;;2.80;99.90;;;;;;5024112;28;20045;-53
2022/01/15 09:46:36;;;;;;;29.23;19.27;;;3.90;99.90;;;;;;5009700;28;20026;-55
2022/01/15 09:49:02;;;;;;;29.92;20.25;;;5.60;99.90;;;;;;5011151;28;20026;-52
2022/01/15 09:51:29;;;;;;;29.77;21.75;;;6.70;99.90;;;;;;5011203;28;20025;-55
2022/01/15 09:53:56;;;;;;;31.33;20.48;;;7.80;99.90;;;;;;5011203;28;20026;-56
2022/01/15 09:56:22;;;;;;;36.70;21.52;;;8.50;96.90;;;;;;5011247;28;20037;-57
2022/01/15 09:58:47;;;;;;;28.40;18.75;;;9.10;95.20;;;;;;5012796;28;20026;-57
2022/01/15 10:01:13;;;;;;;26.17;19.27;;;9.50;92.40;;;;;;5033154;28;20402;-56
2022/01/15 10:03:39;;;;;;;35.50;22.75;;;10.10;91.20;;;;;;5034612;28;20065;-57
2022/01/15 10:06:05;;;;;;;26.05;19.73;;;9.70;90.20;;;;;;5032778;28;20028;-55
2022/01/15 10:08:31;;;;;;;25.95;18.52;;;10.20;91.20;;;;;;5033532;28;20029;-58
2022/01/15 10:10:58;;;;;;;27.67;17.40;;;10.30;86.30;;;;;;5018857;28;20029;-58
2022/01/15 10:13:30;;;;;;;26.63;18.42;;;10.50;86.50;;;;;;5014515;28;20026;-56
2022/01/15 10:15:55;;;;;;;22.83;18.08;;;11.00;82.40;;;;;;5021542;28;20060;-57
2022/01/15 10:18:29;;;;;;;26.02;17.30;;;10.50;83.60;;;;;;5030081;28;20029;-58
2022/01/15 10:21:11;;;;;;;19.92;15.90;;;11.20;81.70;;;;;;5014473;28;20113;-58
2022/01/15 10:23:49;;;;;;;25.13;16.73;;;11.10;79.50;;;;;;5015568;28;20025;-58
2022/01/15 10:26:24;;;;;;;24.52;16.85;;;11.50;78.00;;;;;;5034138;28;20021;-58
2022/01/15 10:29:04;;;;;;;28.25;17.45;;;12.10;75.80;;;;;;5033914;28;20113;-57
2022/01/15 10:31:32;;;;;;;28.17;18.90;;;12.50;74.20;;;;;;5032839;28;20642;-58
2022/01/15 10:34:19;;;;;;;23.85;15.70;;;12.80;72.90;;;;;;5034033;28;20033;-58
2022/01/15 10:36:45;;;;;;;22.35;17.17;;;13.90;67.40;;;;;;5024401;28;20033;-58
2022/01/15 10:39:20;;;;;;;29.27;17.40;;;12.80;69.60;;;;;;5016548;28;20029;-59
2022/01/15 10:41:47;;;;;;;21.63;15.80;;;12.30;72.00;;;;;;5033703;28;20063;-58
2022/01/15 10:44:34;;;;;;;21.92;16.08;;;13.10;68.00;;;;;;5033739;28;20097;-59
2022/01/15 10:47:12;;;;;;;29.83;16.42;;;13.30;68.60;;;;;;5031835;28;20032;-60
2022/01/15 10:49:50;;;;;;;27.00;18.58;;;13.00;67.20;;;;;;5030470;28;20026;-59
2022/01/15 10:52:17;;;;;;;23.52;18.05;;;12.80;67.70;;;;;;5033805;28;20029;-60
2022/01/15 10:54:59;;;;;;;20.45;15.57;;;12.70;67.80;;;;;;5033421;28;20087;-59
2022/01/15 10:57:31;;;;;;;28.30;15.48;;;13.50;67.10;;;;;;5027977;28;20024;-58
2022/01/15 11:00:06;;;;;;;20.90;15.57;;;13.20;63.80;;;;;;5019509;28;20026;-58
2022/01/15 11:02:33;;;;;;;23.33;17.58;;;12.90;66.30;;;;;;5015024;28;20423;-58
2022/01/15 11:04:59;;;;;;;22.73;16.23;;;12.70;64.40;;;;;;5033348;28;20018;-58
2022/01/15 11:07:25;;;;;;;22.55;17.15;;;12.30;64.30;;;;;;5033504;28;20021;-58
2022/01/15 11:09:51;;;;;;;22.67;17.33;;;12.10;65.00;;;;;;5033111;28;20056;-58
2022/01/15 11:12:18;;;;;;;21.42;17.17;;;12.10;66.10;;;;;;5031554;28;20056;-58
2022/01/15 11:14:44;;;;;;;29.73;17.92;;;12.70;64.80;;;;;;5038576;28;20044;-59
2022/01/15 11:17:09;;;;;;;25.58;17.15;;;13.20;63.10;;;;;;5022476;28;20099;-58
2022/01/15 11:19:36;;;;;;;20.55;17.45;;;13.00;62.50;;;;;;5022510;28;20033;-58
2022/01/15 11:22:03;;;;;;;22.52;15.60;;;12.60;63.20;;;;;;5022034;28;20033;-58
2022/01/15 11:24:29;;;;;;;26.48;18.17;;;13.40;63.20;;;;;;5022270;28;20851;-58
2022/01/15 11:26:57;;;;;;;21.98;16.73;;;13.80;61.50;;;;;;5022369;28;20033;-58
2022/01/15 11:29:24;;;;;;;23.70;18.05;;;12.70;62.10;;;;;;5021239;28;20572;-58
2022/01/15 11:31:59;;;;;;;21.15;17.13;;;12.30;63.70;;;;;;5022005;28;20029;-58
2022/01/15 11:34:25;;;;;;;24.20;18.17;;;13.30;61.80;;;;;;5030599;28;20052;-58
2022/01/15 11:36:51;;;;;;;22.88;17.50;;;13.10;61.50;;;;;;5040949;28;20602;-58
2022/01/15 11:39:34;;;;;;;22.95;17.83;;;12.90;62.60;;;;;;5042314;28;20033;-59
2022/01/15 11:42:02;;;;;;;23.60;17.35;;;13.50;61.50;;;;;;5041223;28;20120;-58
2022/01/15 11:44:35;;;;;;;25.05;18.58;;;13.20;61.70;;;;;;5040310;28;20027;-59
2022/01/15 11:47:12;;;;;;;25.20;17.83;;;13.80;60.50;;;;;;5025289;28;20028;-59
2022/01/15 11:49:44;;;;;;;28.00;17.48;;;13.20;60.90;;;;;;5027487;28;20125;-58
2022/01/15 11:52:11;;;;;;;26.58;15.93;;;13.20;61.70;;;;;;5020895;28;20029;-58
2022/01/15 11:54:49;;;;;;;19.90;17.00;;;13.80;61.00;;;;;;5021482;28;20021;-58
2022/01/15 11:57:29;;;;;;;24.40;16.75;;;13.40;60.60;;;;;;5022505;28;20018;-58
2022/01/15 11:59:59;;;;;;;25.85;17.95;;;13.70;60.60;;;;;;5038453;28;20048;-58
2022/01/15 12:02:30;;;;;;;27.50;17.73;;;13.10;61.80;;;;;;5042092;28;20021;-58
2022/01/15 12:05:18;;;;;;;24.63;17.25;;;14.10;61.00;;;;;;5041251;28;20036;-59
2022/01/15 12:08:11;;;;;;;26.40;16.67;;;13.90;59.80;;;;;;5041566;28;20037;-58
2022/01/15 12:10:42;;;;;;;23.30;17.20;;;13.60;61.70;;;;;;5039083;28;20049;-59
2022/01/15 12:13:12;;;;;;;27.00;16.50;;;14.00;60.10;;;;;;5039765;28;20037;-59
2022/01/15 12:15:38;;;;;;;24.67;16.65;;;13.60;60.20;;;;;;5041060;28;20120;-58
2022/01/15 12:18:21;;;;;;;24.75;18.67;;;14.00;60.30;;;;;;5041193;28;20117;-59
2022/01/15 12:20:50;;;;;;;24.38;17.30;;;14.20;59.20;;;;;;5039322;28;20021;-59
2022/01/15 12:23:19;;;;;;;25.67;17.20;;;14.20;58.00;;;;;;5021173;28;20084;-59
2022/01/15 12:25:46;;;;;;;27.63;17.10;;;14.50;58.10;;;;;;5033264;28;20024;-59
2022/01/15 12:28:15;;;;;;;26.98;18.85;;;13.80;58.00;;;;;;5026565;28;20144;-59
2022/01/15 12:30:50;;;;;;;25.17;18.80;;;14.10;58.20;;;;;;5021015;28;20028;-59
2022/01/15 12:33:18;;;;;;;24.88;18.35;;;14.10;58.20;;;;;;5037608;28;20041;-58
2022/01/15 12:35:47;;;;;;;26.27;17.67;;;14.00;59.00;;;;;;5040539;28;20503;-59
2022/01/15 12:38:25;;;;;;;22.63;17.25;;;13.70;59.40;;;;;;5040383;28;20029;-59
2022/01/15 12:40:53;;;;;;;23.15;18.55;;;14.10;58.30;;;;;;5039715;28;20064;-59
2022/01/15 12:43:26;;;;;;;24.08;18.05;;;13.60;59.00;;;;;;5015692;28;20363;-59
2022/01/15 12:46:01;;;;;;;24.67;17.63;;;13.90;59.00;;;;;;5018807;28;20049;-59
2022/01/15 12:48:31;;;;;;;25.55;17.75;;;14.30;58.50;;;;;;5021080;28;20041;-59
2022/01/15 12:51:06;;;;;;;24.95;17.70;;;14.90;56.40;;;;;;5020908;28;20463;-59
2022/01/15 12:53:35;;;;;;;24.38;17.88;;;14.70;56.40;;;;;;5020387;28;20040;-59
2022/01/15 12:56:06;;;;;;;25.80;16.55;;;13.90;57.60;;;;;;5019825;28;20040;-59
2022/01/15 12:58:31;;;;;;;22.38;16.27;;;13.60;59.30;;;;;;5020654;28;20041;-59